Havre City County Airport
KHVR : now visible

Airfield :











YOU CAN JOIN US ON...

 
LOGIN :

Register | Disclaimer

   EN    FR    IT 

 









Legend :    VFR   Marginal VFR   IFR   Intensive IFR   Very Intensive IFR
Visi :
Ceiling :
>= 8 km
>= 3000ft
5 to 8 km
1000 to 3000 ft
1500m to 5 km
500 to 1000 ft
800 to 1500m
200 to 500 ft
< 800m
< 200 ft
Symbols :   Thunderstorms  Fog  Heavy snow  Heavy precipitations  Wind > 20 kt






- Airport Elevation : 2591 ft


KHVR - Havre City County

CURRENT METAR :
  • 220225Z AUTO 05013KT 1 3/4SM -SN BR OVC011 M03/M05 A3011 RMK AO2 P0000 T10331050

EXPIRED METARs :
  • 220153Z AUTO 04017KT 2SM -SN BR BKN010 OVC017 M03/M05 A3009 RMK AO2 PK WND 05030/0109 SLP223 P0000 T10331050
  • 220142Z AUTO 05017KT 2 1/2SM -SN BR SCT010 OVC017 M03/M04 A3008 RMK AO2 PK WND 05030/0109 PRESRR P0000 T10281044
  • 220139Z AUTO 05014G28KT 2 1/2SM -SN BR BKN013 OVC019 M03/M05 A3008 RMK AO2 PK WND 05030/0109 PRESRR P0000 T10281050
  • 220104Z AUTO 04017G27KT 3SM -SN BR FEW009 OVC017 M02/M04 A3004 RMK AO2 PK WND 04027/0057 P0000 T10221039
  • 220053Z AUTO 04017KT 2 1/2SM -SN BR FEW008 OVC015 M02/M04 A3004 RMK AO2 PRESRR SLP204 P0001 T10221039
  • 220032Z AUTO 02018G25KT 2 1/2SM -SN BR SCT008 OVC015 M02/M03 A3001 RMK AO2 P0000 T10221033
  • 220012Z AUTO 02014G20KT 2SM -SN BR BKN008 OVC015 M02/M03 A3000 RMK AO2 CIG 005V010 P0000 T10171028
  • 220003Z AUTO 02011KT 1SM -SN BR BKN008 OVC015 M01/M02 A3000 RMK AO2 CIG 005V012 P0000 T10111022
  • 212353Z AUTO 01010KT 3/4SM -SN BR BKN006 OVC013 M01/M02 A2999 RMK AO2 SLP187 P0002 60009 T10111022 10000 21022 53023
  • 212342Z AUTO 36011KT 3/4SM -SN BR BKN006 OVC013 M01/M02 A2999 RMK AO2 P0001 T10111022

TAF KHVR
Valid from the 22 at 01:00 until the 23 at 00:00 UTC


220127Z 2201/2224 04015G25KT 2SM -SN BR SCT009 OVC015
TEMPO 2203/2206 1/2SM SN BLSN BKN006
FM220800 35011G20KT 5SM -SN BR SCT009 OVC017
FM221200 33011KT P6SM SCT020 OVC035
PROB30 2212/2215 4SM -SN BR BKN020
FM221600 31008KT P6SM FEW021 SCT050
KZLC FIR / North America



MET'MAP, your aeronautical weather chart ! - Copyright ORBIFLY December 2007 - Disclaimer

ORBIFLY MET'MAP TEAM :

Programming & Development : Alexandra Zaïnal
Concept & original design : Baudouin d'Aumeries
Assistance for programming : Marc-Olivier Méhu
Technical & hardware support : Manuel Goepfert

Contact : metmap@orbifly.com




SOURCES & CREDITS :

   NOAA       Earth
Advisory